Pomfret Center, Connecticut
Current Conditions -  °F | °C
As of 2:52 AM on Friday 28 Nov 2014 (Local Time) from KIJD Reporting Station
Overcast Overcast  
Wind Chill: 24°   Ceiling: 4600
Heat Index: 31°   Visibility: 10mi
Dew Point: 26°   Wind: 7mph
Humidity: 82%   Direction: 320°NW
Pressure: 30.01"   Gusts: NA
Location:  41.88°N, 72.01°W
Report Text: KIJD 280752Z AUTO 32006KT 10SM BKN046 OVC060 M01/M03 A3001 RMK AO2 SLP163 T10061033
Loading
Personal Weather Stations






























Interactive Weather Map New forecast layout! Learn more

10-Day Weather Forecast

Advertisements
Track Severe Weather on mobile